Time;durP1;ratioP1;P1;durP2;ratioP2;P2;SDS_P1;SDS_P2;PMS_P1;PMS_P2;Temp;Humidity;BMP_temperature;BMP_pressure;BME280_temperature;BME280_humidity;BME280_pressure;Samples;Min_cycle;Max_cycle;Signal;HPM_P1;HPM_P2
2024/03/12 00:00:56;;;;;;;1.30;0.80;;;7.50;99.90;;;;;;4979165;28;20432;-78
2024/03/12 00:03:21;;;;;;;2.40;0.90;;;7.50;99.90;;;;;;4978491;28;20791;-78
2024/03/12 00:05:47;;;;;;;1.40;0.90;;;7.40;99.90;;;;;;4980093;28;20993;-78
2024/03/12 00:08:14;;;;;;;2.30;1.10;;;7.40;99.90;;;;;;4985430;28;20273;-77
2024/03/12 00:10:39;;;;;;;2.73;0.83;;;7.30;99.90;;;;;;4979157;28;20832;-79
2024/03/12 00:13:06;;;;;;;1.37;0.67;;;7.30;99.90;;;;;;4978191;28;20439;-77
2024/03/12 00:15:36;;;;;;;3.10;0.83;;;7.40;99.90;;;;;;4977377;28;20256;-77
2024/03/12 00:18:05;;;;;;;2.00;1.00;;;7.40;99.90;;;;;;4978831;28;20848;-77
2024/03/12 00:20:33;;;;;;;1.90;1.00;;;7.40;99.90;;;;;;4977580;28;20891;-77
2024/03/12 00:22:59;;;;;;;1.83;1.10;;;7.40;99.90;;;;;;4977749;28;20483;-76
2024/03/12 00:25:26;;;;;;;2.83;1.50;;;7.40;99.90;;;;;;4977802;28;20479;-77
2024/03/12 00:27:54;;;;;;;2.90;1.40;;;7.30;99.90;;;;;;4976415;28;20436;-75
2024/03/12 00:30:24;;;;;;;1.73;1.10;;;7.30;99.90;;;;;;4978162;28;20483;-77
2024/03/12 00:32:51;;;;;;;2.70;1.10;;;7.30;99.90;;;;;;4978380;28;20455;-77
2024/03/12 00:35:17;;;;;;;2.13;1.43;;;7.30;99.90;;;;;;4977763;28;20451;-77
2024/03/12 00:37:44;;;;;;;2.67;1.20;;;7.30;99.90;;;;;;4977480;28;20474;-76
2024/03/12 00:40:11;;;;;;;3.20;1.83;;;7.30;99.90;;;;;;4976252;28;20200;-76
2024/03/12 00:42:46;;;;;;;3.30;1.67;;;7.30;99.90;;;;;;4978596;28;20470;-78
2024/03/12 00:45:13;;;;;;;3.63;1.30;;;7.30;99.90;;;;;;4980033;28;20471;-77
2024/03/12 00:47:40;;;;;;;5.30;1.90;;;7.30;99.90;;;;;;4981684;28;20435;-77
2024/03/12 00:50:07;;;;;;;5.97;2.50;;;7.30;99.90;;;;;;4975638;28;20930;-75
2024/03/12 00:52:33;;;;;;;2.90;1.50;;;7.30;99.90;;;;;;4977958;28;20494;-76
2024/03/12 00:55:04;;;;;;;8.63;3.20;;;7.30;99.90;;;;;;4986548;28;20474;-77
2024/03/12 00:57:30;;;;;;;9.93;3.20;;;7.30;99.90;;;;;;4978526;28;20768;-76
2024/03/12 00:59:57;;;;;;;15.33;4.73;;;7.40;99.90;;;;;;4977031;28;20414;-77
2024/03/12 01:02:25;;;;;;;10.13;3.77;;;7.40;99.90;;;;;;4977902;28;20424;-78
2024/03/12 01:04:52;;;;;;;12.23;4.20;;;7.40;99.90;;;;;;4977669;28;20521;-76
2024/03/12 01:07:19;;;;;;;10.97;4.03;;;7.40;99.90;;;;;;4977728;28;20431;-77
2024/03/12 01:09:46;;;;;;;14.50;5.67;;;7.40;99.90;;;;;;4977848;28;20406;-75
2024/03/12 01:12:13;;;;;;;15.70;5.10;;;7.40;99.90;;;;;;4978368;28;20466;-77
2024/03/12 01:14:39;;;;;;;15.53;4.93;;;7.40;99.90;;;;;;4977613;28;20426;-77
2024/03/12 01:17:07;;;;;;;8.97;3.70;;;7.40;99.90;;;;;;4978125;28;20522;-76
2024/03/12 01:19:37;;;;;;;10.10;3.97;;;7.50;99.90;;;;;;4977610;28;20527;-77
2024/03/12 01:22:04;;;;;;;12.33;4.43;;;7.40;99.90;;;;;;4978175;28;20455;-76
2024/03/12 01:24:30;;;;;;;8.07;3.30;;;7.40;99.90;;;;;;4980501;28;20458;-77
2024/03/12 01:26:56;;;;;;;13.07;4.03;;;7.40;99.90;;;;;;4982799;28;20502;-77
2024/03/12 01:29:22;;;;;;;7.70;3.50;;;7.40;99.90;;;;;;4980679;28;20424;-77
2024/03/12 01:31:50;;;;;;;7.90;3.43;;;7.40;99.90;;;;;;4980873;28;20427;-77
2024/03/12 01:34:18;;;;;;;9.10;3.17;;;7.40;99.90;;;;;;4981367;28;20436;-76
2024/03/12 01:36:47;;;;;;;7.07;2.80;;;7.50;99.90;;;;;;4980555;28;20462;-77
2024/03/12 01:39:16;;;;;;;7.47;2.73;;;7.50;99.90;;;;;;4977277;28;20696;-77
2024/03/12 01:41:42;;;;;;;20.83;5.53;;;7.40;99.90;;;;;;4977016;28;20910;-77
2024/03/12 01:44:08;;;;;;;11.70;4.27;;;7.40;99.90;;;;;;4975784;28;20752;-78
2024/03/12 01:46:36;;;;;;;10.40;4.30;;;7.40;99.90;;;;;;4981109;28;20446;-79
2024/03/12 01:49:04;;;;;;;8.50;2.90;;;7.40;99.90;;;;;;4976116;28;20506;-77
2024/03/12 01:51:31;;;;;;;10.10;4.40;;;7.40;99.90;;;;;;4976726;28;20400;-77
2024/03/12 01:53:57;;;;;;;10.10;4.50;;;7.40;99.90;;;;;;4976562;28;20522;-76
2024/03/12 01:56:24;;;;;;;13.43;5.80;;;7.50;99.90;;;;;;4976501;28;20692;-77
2024/03/12 01:58:51;;;;;;;14.30;5.00;;;7.50;99.90;;;;;;4974896;28;20199;-79
2024/03/12 02:01:20;;;;;;;18.90;5.17;;;7.40;99.90;;;;;;4976130;28;20751;-77
2024/03/12 02:03:51;;;;;;;17.07;6.30;;;7.40;99.90;;;;;;4976107;28;20463;-76
2024/03/12 02:06:19;;;;;;;17.57;5.70;;;7.40;99.90;;;;;;4975443;28;20899;-77
2024/03/12 02:08:46;;;;;;;27.20;6.63;;;7.40;99.90;;;;;;4976731;28;20428;-77
2024/03/12 02:11:11;;;;;;;19.40;5.73;;;7.40;99.90;;;;;;4975598;28;20407;-76
2024/03/12 02:13:38;;;;;;;36.63;9.20;;;7.40;99.90;;;;;;4975826;28;20419;-75
2024/03/12 02:16:05;;;;;;;23.83;8.43;;;7.40;99.90;;;;;;4975036;28;20256;-75
2024/03/12 02:18:32;;;;;;;25.63;9.10;;;7.40;99.90;;;;;;4976304;28;20435;-78
2024/03/12 02:20:58;;;;;;;32.90;11.90;;;7.40;99.90;;;;;;4969680;28;20444;-76
2024/03/12 02:23:40;;;;;;;27.23;8.93;;;7.40;99.90;;;;;;4975595;28;20487;-77
2024/03/12 02:26:06;;;;;;;17.70;6.87;;;7.40;99.90;;;;;;4970762;28;20454;-78
2024/03/12 02:28:32;;;;;;;18.10;6.00;;;7.40;99.90;;;;;;4975336;28;20812;-76
2024/03/12 02:30:59;;;;;;;8.87;4.53;;;7.40;99.90;;;;;;4976856;28;20888;-77
2024/03/12 02:33:25;;;;;;;12.53;5.17;;;7.40;99.90;;;;;;4976691;28;20428;-79
2024/03/12 02:35:51;;;;;;;11.80;4.10;;;7.40;99.90;;;;;;4970307;28;20439;-78
2024/03/12 02:38:18;;;;;;;7.93;3.50;;;7.40;99.90;;;;;;4975638;28;20423;-77
2024/03/12 02:40:45;;;;;;;8.90;3.30;;;7.40;99.90;;;;;;4976596;28;20694;-76
2024/03/12 02:43:11;;;;;;;9.43;4.07;;;7.40;99.90;;;;;;4975353;28;20434;-76
2024/03/12 02:45:38;;;;;;;25.23;7.57;;;7.40;99.90;;;;;;4976600;28;20420;-76
2024/03/12 02:48:05;;;;;;;34.10;9.10;;;7.40;99.90;;;;;;4975353;28;20451;-77
2024/03/12 02:50:31;;;;;;;24.30;9.10;;;7.40;99.90;;;;;;4975846;28;20427;-77
2024/03/12 02:52:57;;;;;;;36.97;12.27;;;7.40;99.90;;;;;;4974728;28;20922;-77
2024/03/12 02:55:23;;;;;;;42.73;13.90;;;7.30;99.90;;;;;;4976394;28;20595;-77
2024/03/12 02:57:48;;;;;;;26.80;11.00;;;7.30;99.90;;;;;;4975851;28;20463;-78
2024/03/12 03:00:14;;;;;;;32.23;11.47;;;7.30;99.90;;;;;;4974898;28;20467;-76
2024/03/12 03:02:43;;;;;;;36.30;11.20;;;7.30;99.90;;;;;;4979124;28;20180;-77
2024/03/12 03:05:09;;;;;;;23.50;8.70;;;7.30;99.90;;;;;;4982045;28;20255;-76
2024/03/12 03:07:36;;;;;;;14.67;7.00;;;7.30;99.90;;;;;;4978498;28;20474;-77
2024/03/12 03:10:03;;;;;;;23.27;7.00;;;7.30;99.90;;;;;;4979625;28;20423;-77
2024/03/12 03:12:29;;;;;;;14.87;7.10;;;7.30;99.90;;;;;;4979827;28;20483;-77
2024/03/12 03:14:55;;;;;;;19.53;5.53;;;7.30;99.90;;;;;;4982812;28;20479;-77
2024/03/12 03:17:21;;;;;;;11.43;5.60;;;7.30;99.90;;;;;;4982240;28;20443;-77
2024/03/12 03:19:48;;;;;;;15.33;5.70;;;7.30;99.90;;;;;;4980324;28;20613;-76
2024/03/12 03:22:15;;;;;;;14.87;4.80;;;7.30;99.90;;;;;;4978274;28;20626;-77
2024/03/12 03:24:40;;;;;;;13.80;6.10;;;7.30;99.90;;;;;;4979167;28;20755;-77
2024/03/12 03:27:07;;;;;;;13.93;5.47;;;7.30;99.90;;;;;;4978054;28;20443;-75
2024/03/12 03:29:35;;;;;;;18.10;6.23;;;7.20;99.90;;;;;;4979038;28;20203;-76
2024/03/12 03:32:01;;;;;;;21.00;8.10;;;7.20;99.90;;;;;;4978281;28;20428;-76
2024/03/12 03:34:31;;;;;;;18.43;7.37;;;7.20;99.90;;;;;;4962021;28;20446;-76
2024/03/12 03:36:58;;;;;;;19.67;8.63;;;7.20;99.90;;;;;;4978420;28;20436;-77
2024/03/12 03:39:24;;;;;;;28.67;9.60;;;7.20;99.90;;;;;;4978951;28;20424;-77
2024/03/12 03:41:51;;;;;;;38.70;13.80;;;7.20;99.90;;;;;;4977978;28;20440;-76
2024/03/12 03:44:16;;;;;;;28.40;12.10;;;7.20;99.90;;;;;;4978500;28;20448;-77
2024/03/12 03:46:42;;;;;;;26.60;11.10;;;7.20;99.90;;;;;;4979065;28;20781;-77
2024/03/12 03:49:08;;;;;;;25.47;10.77;;;7.20;99.90;;;;;;4978285;28;20519;-76
2024/03/12 03:51:35;;;;;;;28.17;10.53;;;7.20;99.90;;;;;;4977424;28;20511;-77
2024/03/12 03:54:01;;;;;;;19.43;8.60;;;7.20;99.90;;;;;;4977558;28;20351;-75
2024/03/12 03:56:27;;;;;;;19.83;8.93;;;7.10;99.90;;;;;;4977918;28;20443;-76
2024/03/12 03:58:57;;;;;;;19.77;8.67;;;7.20;99.90;;;;;;4977938;28;20538;-76
2024/03/12 04:01:24;;;;;;;23.07;10.20;;;7.20;99.90;;;;;;4978433;28;20704;-77
2024/03/12 04:03:52;;;;;;;19.97;9.27;;;7.20;99.90;;;;;;4977262;28;20884;-77
2024/03/12 04:06:21;;;;;;;34.80;12.90;;;7.10;99.90;;;;;;4977768;28;20436;-76
2024/03/12 04:08:49;;;;;;;30.17;11.53;;;7.10;99.90;;;;;;4978072;28;20423;-75
2024/03/12 04:11:15;;;;;;;25.80;10.33;;;7.10;99.90;;;;;;4978379;28;20716;-76
2024/03/12 04:13:41;;;;;;;25.27;9.43;;;7.10;99.90;;;;;;4979160;28;20443;-78
2024/03/12 04:16:06;;;;;;;50.57;17.70;;;7.10;99.90;;;;;;4979556;28;20440;-77
2024/03/12 04:18:33;;;;;;;44.67;15.23;;;7.10;99.90;;;;;;4978063;28;20243;-77
2024/03/12 04:20:59;;;;;;;42.33;15.47;;;7.00;99.90;;;;;;4977136;28;20267;-77
2024/03/12 04:23:25;;;;;;;41.47;14.63;;;7.00;99.90;;;;;;4976832;28;20509;-77
2024/03/12 04:25:51;;;;;;;26.13;11.70;;;7.00;99.90;;;;;;4977974;28;20455;-77
2024/03/12 04:28:19;;;;;;;37.83;13.80;;;7.00;99.90;;;;;;4977717;28;20241;-76
2024/03/12 04:30:48;;;;;;;27.73;12.00;;;7.00;99.90;;;;;;4978590;28;20426;-78
2024/03/12 04:33:15;;;;;;;27.93;12.97;;;7.00;99.90;;;;;;4978121;28;20488;-78
2024/03/12 04:35:42;;;;;;;28.97;12.80;;;7.10;99.90;;;;;;4977896;28;20415;-78
2024/03/12 04:38:07;;;;;;;37.50;15.83;;;7.00;99.90;;;;;;4977554;28;20408;-75
2024/03/12 04:40:33;;;;;;;33.50;12.87;;;7.00;99.90;;;;;;4977714;28;20689;-76
2024/03/12 04:42:59;;;;;;;35.50;14.90;;;7.00;99.90;;;;;;4977227;28;20199;-76
2024/03/12 04:45:25;;;;;;;37.73;14.17;;;7.00;99.90;;;;;;4977786;28;20970;-77
2024/03/12 04:47:50;;;;;;;36.40;13.93;;;7.00;99.90;;;;;;4978040;28;20362;-77
2024/03/12 04:50:19;;;;;;;37.83;16.27;;;7.00;99.90;;;;;;4977661;28;20189;-76
2024/03/12 04:52:44;;;;;;;45.07;16.07;;;7.00;99.90;;;;;;4976057;28;20200;-75
2024/03/12 04:55:12;;;;;;;39.60;16.20;;;7.00;99.90;;;;;;4977592;28;20473;-78
2024/03/12 04:57:38;;;;;;;34.50;14.73;;;7.00;99.90;;;;;;4976292;28;20220;-78
2024/03/12 05:00:13;;;;;;;46.87;16.07;;;7.00;99.90;;;;;;4977229;28;20449;-76
2024/03/12 05:02:39;;;;;;;79.33;23.87;;;7.10;99.90;;;;;;4991838;28;20214;-78
2024/03/12 05:05:09;;;;;;;97.37;27.23;;;7.00;99.90;;;;;;4987965;28;20594;-76
2024/03/12 05:07:35;;;;;;;96.57;29.50;;;7.00;99.90;;;;;;4988033;28;20487;-78
2024/03/12 05:10:04;;;;;;;101.80;31.03;;;6.90;99.90;;;;;;4993013;28;20745;-77
2024/03/12 05:12:30;;;;;;;102.80;29.20;;;6.90;99.90;;;;;;4992036;28;20444;-78
2024/03/12 05:14:56;;;;;;;101.47;28.60;;;6.90;99.90;;;;;;4976519;28;20435;-76
2024/03/12 05:17:21;;;;;;;89.40;28.40;;;6.90;99.90;;;;;;4981409;28;20209;-77
2024/03/12 05:19:48;;;;;;;61.83;24.30;;;6.90;99.90;;;;;;4943609;28;20612;-77
2024/03/12 05:22:16;;;;;;;69.13;20.90;;;6.90;99.90;;;;;;4959698;29;20193;-76
2024/03/12 05:24:41;;;;;;;74.13;22.87;;;6.90;99.90;;;;;;4957899;28;20534;-77
2024/03/12 05:27:07;;;;;;;64.10;22.37;;;6.90;99.90;;;;;;4972041;28;20452;-77
2024/03/12 05:29:42;;;;;;;77.93;23.70;;;6.90;99.90;;;;;;4964874;28;20216;-76
2024/03/12 05:32:17;;;;;;;99.70;30.17;;;7.00;99.90;;;;;;4975824;28;20196;-77
2024/03/12 05:34:45;;;;;;;99.67;30.07;;;6.90;99.90;;;;;;4971788;28;20443;-77
2024/03/12 05:37:28;;;;;;;102.43;27.90;;;6.90;99.90;;;;;;4962685;28;20449;-76
2024/03/12 05:40:11;;;;;;;117.00;30.10;;;6.90;99.90;;;;;;4955486;29;20448;-78
2024/03/12 05:48:12;;;;;;;82.50;25.47;;;6.80;99.90;;;;;;4981792;28;20412;-75
2024/03/12 05:50:38;;;;;;;85.10;28.50;;;6.80;99.90;;;;;;4988454;28;20431;-74
2024/03/12 05:53:04;;;;;;;95.53;26.63;;;6.80;99.90;;;;;;4989106;28;20459;-76
2024/03/12 05:55:30;;;;;;;89.23;25.63;;;6.80;99.90;;;;;;4989776;28;20427;-76
2024/03/12 05:57:56;;;;;;;93.67;30.33;;;6.80;99.90;;;;;;4989444;28;20214;-77
2024/03/12 06:00:21;;;;;;;70.33;22.73;;;6.80;99.90;;;;;;4987961;28;20204;-76
2024/03/12 06:02:49;;;;;;;96.47;26.93;;;6.80;99.90;;;;;;4989464;28;20251;-78
2024/03/12 06:05:16;;;;;;;81.67;24.60;;;6.90;99.90;;;;;;4988843;28;20219;-79
2024/03/12 06:07:48;;;;;;;80.13;23.70;;;6.90;99.90;;;;;;4989668;28;20435;-79
2024/03/12 06:10:14;;;;;;;66.33;22.93;;;6.90;99.90;;;;;;4989940;28;20428;-77
2024/03/12 06:12:41;;;;;;;76.83;23.73;;;6.90;99.90;;;;;;4989223;28;20416;-76
2024/03/12 06:15:07;;;;;;;61.57;21.20;;;6.90;99.90;;;;;;4959925;28;20427;-78
2024/03/12 06:17:34;;;;;;;93.13;27.43;;;6.90;99.90;;;;;;4991665;28;20444;-79
2024/03/12 06:20:00;;;;;;;64.50;21.60;;;6.90;99.90;;;;;;4990648;28;20439;-78
2024/03/12 06:22:26;;;;;;;97.87;27.97;;;6.90;99.90;;;;;;4990950;28;20420;-79
2024/03/12 06:24:53;;;;;;;58.97;20.90;;;7.00;99.90;;;;;;4978257;28;20244;-79
2024/03/12 06:27:19;;;;;;;47.67;18.37;;;7.00;99.90;;;;;;4972892;28;20508;-79
2024/03/12 06:29:49;;;;;;;63.17;19.07;;;7.00;99.90;;;;;;4972293;28;20416;-77
2024/03/12 06:32:17;;;;;;;59.93;22.07;;;7.00;99.90;;;;;;4972863;28;20196;-78
2024/03/12 06:34:44;;;;;;;85.87;26.60;;;6.90;99.90;;;;;;4990874;28;20415;-78
2024/03/12 06:37:10;;;;;;;58.17;21.23;;;6.90;99.90;;;;;;4996876;28;20439;-79
2024/03/12 06:39:36;;;;;;;115.93;28.00;;;6.90;99.90;;;;;;4963077;28;20503;-80
2024/03/12 06:42:02;;;;;;;75.10;24.30;;;6.90;99.90;;;;;;4996128;28;20420;-79
2024/03/12 06:44:28;;;;;;;51.63;19.20;;;6.90;99.90;;;;;;4995915;28;20271;-81
2024/03/12 06:46:57;;;;;;;63.63;18.13;;;6.90;99.90;;;;;;4998521;28;20455;-78
2024/03/12 06:49:24;;;;;;;59.67;18.60;;;6.90;99.90;;;;;;4976816;28;20416;-79
2024/03/12 06:51:51;;;;;;;62.50;22.13;;;6.90;99.90;;;;;;4999849;28;20479;-77
2024/03/12 06:54:16;;;;;;;61.40;20.00;;;6.90;99.90;;;;;;4981728;28;20439;-79
2024/03/12 06:56:43;;;;;;;76.27;23.93;;;6.80;99.90;;;;;;4982338;28;20992;-77
2024/03/12 06:59:10;;;;;;;122.63;29.70;;;6.80;99.90;;;;;;4996106;28;20212;-77
2024/03/12 07:01:41;;;;;;;110.80;30.30;;;6.80;99.90;;;;;;4995099;28;20478;-79
2024/03/12 07:04:10;;;;;;;92.60;28.13;;;6.80;99.90;;;;;;4994353;28;20514;-78
2024/03/12 07:06:42;;;;;;;108.73;28.30;;;6.80;99.90;;;;;;4995525;28;20448;-77
2024/03/12 07:09:09;;;;;;;78.90;25.77;;;6.70;99.90;;;;;;4962394;28;20423;-78
2024/03/12 07:11:39;;;;;;;54.30;20.10;;;6.70;99.90;;;;;;4979690;28;20455;-81
2024/03/12 07:14:27;;;;;;;125.47;28.77;;;6.80;99.90;;;;;;4994970;28;20450;-78
2024/03/12 07:16:57;;;;;;;90.67;27.77;;;6.80;99.90;;;;;;4978456;28;20511;-79
2024/03/12 07:19:22;;;;;;;91.67;27.67;;;6.80;99.90;;;;;;4978242;28;20515;-78
2024/03/12 07:21:54;;;;;;;81.50;25.00;;;6.80;99.90;;;;;;4979231;28;20439;-80
2024/03/12 07:24:20;;;;;;;76.83;23.83;;;6.80;99.90;;;;;;4994557;28;20472;-82
2024/03/12 07:26:47;;;;;;;60.03;22.10;;;6.80;99.90;;;;;;4977798;28;20471;-78
2024/03/12 07:29:13;;;;;;;53.73;18.97;;;6.90;99.90;;;;;;4994366;28;20188;-77
2024/03/12 07:31:39;;;;;;;44.00;17.40;;;6.90;99.90;;;;;;4979499;28;20427;-80
2024/03/12 07:34:15;;;;;;;103.70;25.43;;;6.90;99.90;;;;;;4993683;28;20467;-78
2024/03/12 07:36:42;;;;;;;74.57;22.40;;;7.00;99.90;;;;;;4993187;28;20933;-78
2024/03/12 07:39:24;;;;;;;66.10;21.47;;;7.00;99.90;;;;;;4976182;28;20879;-80
2024/03/12 07:41:54;;;;;;;52.00;20.70;;;7.00;99.90;;;;;;4977514;28;20439;-78
2024/03/12 07:44:20;;;;;;;100.30;28.47;;;7.00;99.90;;;;;;4990797;28;20468;-79
2024/03/12 07:46:47;;;;;;;92.27;28.10;;;7.00;99.90;;;;;;4987672;28;20495;-79
2024/03/12 07:49:20;;;;;;;111.90;29.73;;;7.00;99.90;;;;;;4993787;28;20445;-79
2024/03/12 07:51:49;;;;;;;124.13;32.03;;;7.00;99.90;;;;;;4977209;28;20423;-81
2024/03/12 07:54:18;;;;;;;132.73;36.07;;;7.00;99.90;;;;;;4960992;28;20459;-78
2024/03/12 07:56:48;;;;;;;111.70;32.77;;;6.90;99.90;;;;;;4991795;28;20458;-77
2024/03/12 07:59:16;;;;;;;114.83;32.67;;;6.90;99.90;;;;;;4987133;28;20404;-77
2024/03/12 08:01:44;;;;;;;76.90;25.47;;;6.90;99.90;;;;;;4992985;28;20415;-81
2024/03/12 08:04:10;;;;;;;66.17;22.53;;;6.90;99.90;;;;;;4978507;28;20468;-78
2024/03/12 08:06:36;;;;;;;63.80;19.90;;;7.00;99.90;;;;;;4962400;28;20474;-75
2024/03/12 08:09:04;;;;;;;51.30;17.47;;;7.10;99.90;;;;;;4996746;28;20438;-77
2024/03/12 08:11:31;;;;;;;43.60;14.37;;;7.10;99.90;;;;;;4992325;28;20193;-77
2024/03/12 08:13:56;;;;;;;40.53;13.27;;;7.10;99.90;;;;;;4992583;28;20463;-75
2024/03/12 08:16:22;;;;;;;29.97;11.80;;;7.10;99.90;;;;;;4991471;28;20459;-78
2024/03/12 08:18:49;;;;;;;26.90;11.90;;;7.20;99.90;;;;;;4990460;28;20195;-77
2024/03/12 08:21:16;;;;;;;40.87;15.07;;;7.20;99.90;;;;;;4991309;28;20232;-78
2024/03/12 08:23:41;;;;;;;48.17;14.90;;;7.20;99.90;;;;;;4991412;28;20494;-77
2024/03/12 08:26:08;;;;;;;61.77;18.93;;;7.20;99.90;;;;;;4992624;28;20436;-76
2024/03/12 08:28:34;;;;;;;50.90;16.37;;;7.20;99.90;;;;;;4996807;28;20196;-79
2024/03/12 08:31:02;;;;;;;37.30;13.73;;;7.10;99.90;;;;;;4977683;28;20424;-76
2024/03/12 08:33:28;;;;;;;58.80;17.30;;;7.20;99.90;;;;;;4992938;28;20428;-77
2024/03/12 08:35:54;;;;;;;149.57;33.17;;;7.20;99.90;;;;;;4994362;28;20204;-78
2024/03/12 08:38:20;;;;;;;135.93;33.23;;;7.20;99.90;;;;;;4992396;28;20196;-79
2024/03/12 08:40:47;;;;;;;98.07;27.73;;;7.20;99.90;;;;;;4991786;28;20576;-77
2024/03/12 08:43:13;;;;;;;112.17;34.10;;;7.20;99.90;;;;;;4988439;28;20416;-78
2024/03/12 08:45:39;;;;;;;123.23;32.37;;;7.20;99.90;;;;;;4988397;28;20462;-79
2024/03/12 08:48:06;;;;;;;112.37;29.27;;;7.20;99.90;;;;;;4972559;28;20204;-77
2024/03/12 08:50:32;;;;;;;69.57;23.37;;;7.20;99.90;;;;;;4975944;28;20408;-77
2024/03/12 08:52:58;;;;;;;71.90;22.33;;;7.30;99.90;;;;;;4970702;28;20420;-77
2024/03/12 08:55:24;;;;;;;94.23;26.37;;;7.30;99.90;;;;;;4971377;28;20480;-74
2024/03/12 08:57:51;;;;;;;77.87;23.47;;;7.30;99.90;;;;;;4987331;28;20498;-76
2024/03/12 09:00:18;;;;;;;72.57;22.50;;;7.30;99.90;;;;;;4987136;28;20231;-78
2024/03/12 09:02:45;;;;;;;52.47;18.97;;;7.30;99.90;;;;;;4970819;28;20459;-78
2024/03/12 09:05:12;;;;;;;70.90;22.20;;;7.30;99.90;;;;;;4987772;28;20502;-77
2024/03/12 09:07:38;;;;;;;80.00;27.33;;;7.40;99.90;;;;;;4970941;28;20451;-76
2024/03/12 09:10:12;;;;;;;94.83;27.87;;;7.40;99.90;;;;;;4967374;28;20894;-78
2024/03/12 09:12:40;;;;;;;64.20;23.50;;;7.40;99.90;;;;;;4971192;28;20188;-76
2024/03/12 09:15:09;;;;;;;54.93;20.13;;;7.40;99.90;;;;;;4987988;28;20436;-79
2024/03/12 09:17:37;;;;;;;51.53;19.40;;;7.40;99.90;;;;;;4974078;28;20471;-76
2024/03/12 09:20:05;;;;;;;90.77;29.03;;;7.40;99.90;;;;;;4982759;28;20439;-76
2024/03/12 09:22:31;;;;;;;120.60;32.23;;;7.50;99.90;;;;;;4984865;28;20427;-77
2024/03/12 09:24:58;;;;;;;109.67;33.47;;;7.50;99.90;;;;;;4987198;28;20467;-76
2024/03/12 09:27:25;;;;;;;96.03;26.30;;;7.50;99.90;;;;;;4965572;28;20447;-76
2024/03/12 09:29:51;;;;;;;75.50;23.40;;;7.60;99.90;;;;;;4967558;28;20724;-76
2024/03/12 09:32:18;;;;;;;143.37;32.40;;;7.70;99.90;;;;;;4982646;28;20498;-79
2024/03/12 09:34:44;;;;;;;75.93;23.90;;;7.80;99.90;;;;;;4963776;29;20437;-77
2024/03/12 09:37:09;;;;;;;78.93;24.20;;;7.90;99.90;;;;;;4983554;28;20510;-77
2024/03/12 09:39:38;;;;;;;46.67;18.90;;;8.00;99.90;;;;;;4990740;28;20277;-78
2024/03/12 09:42:07;;;;;;;69.33;23.23;;;7.90;99.90;;;;;;4988800;28;20200;-76
2024/03/12 09:44:35;;;;;;;55.47;18.37;;;7.90;99.90;;;;;;4967986;28;20518;-78
2024/03/12 09:47:05;;;;;;;36.47;13.80;;;7.80;99.90;;;;;;4985916;28;20500;-77
2024/03/12 09:49:35;;;;;;;83.33;25.23;;;7.90;99.90;;;;;;4968422;28;20527;-75
2024/03/12 09:52:05;;;;;;;73.40;25.70;;;7.80;99.90;;;;;;4985959;28;20420;-77
2024/03/12 09:54:34;;;;;;;99.23;30.90;;;7.80;99.90;;;;;;4970517;28;20432;-77
2024/03/12 09:57:01;;;;;;;72.13;24.30;;;7.80;99.90;;;;;;4986023;28;20436;-78
2024/03/12 09:59:26;;;;;;;73.30;23.93;;;7.80;99.90;;;;;;4990976;28;20496;-77
2024/03/12 10:01:53;;;;;;;77.93;29.17;;;7.80;99.90;;;;;;4989684;28;20432;-78
2024/03/12 10:04:19;;;;;;;83.53;29.07;;;7.80;99.90;;;;;;4969900;28;20275;-77
2024/03/12 10:06:45;;;;;;;91.87;28.00;;;7.70;99.90;;;;;;4984217;28;20974;-77
2024/03/12 10:09:18;;;;;;;117.87;35.77;;;7.70;99.90;;;;;;4986014;28;20444;-76
2024/03/12 10:11:45;;;;;;;95.43;31.17;;;7.70;99.90;;;;;;4985212;28;20443;-75
2024/03/12 10:14:17;;;;;;;111.80;33.87;;;7.70;99.90;;;;;;4987417;28;20840;-76
2024/03/12 10:16:43;;;;;;;115.50;34.83;;;7.90;99.90;;;;;;4985860;28;20522;-77
2024/03/12 10:19:18;;;;;;;127.30;31.97;;;7.90;99.90;;;;;;4969892;28;20420;-77
2024/03/12 10:21:49;;;;;;;59.80;21.93;;;8.00;99.90;;;;;;4972950;28;20429;-79
2024/03/12 10:24:21;;;;;;;131.20;36.03;;;8.10;99.90;;;;;;4972654;28;20490;-76
2024/03/12 10:26:48;;;;;;;170.87;41.10;;;8.30;99.90;;;;;;4988149;28;20530;-77
2024/03/12 10:29:18;;;;;;;129.80;36.90;;;8.20;99.90;;;;;;4969019;28;20407;-77
2024/03/12 10:31:48;;;;;;;121.13;33.80;;;8.10;99.90;;;;;;4969076;28;20420;-75
2024/03/12 10:34:23;;;;;;;109.13;33.23;;;7.80;99.90;;;;;;4983091;28;20435;-74
2024/03/12 10:36:52;;;;;;;80.27;27.70;;;7.70;99.90;;;;;;4980671;28;20443;-76
2024/03/12 10:39:28;;;;;;;121.90;35.17;;;7.70;99.90;;;;;;4980864;28;20436;-73
2024/03/12 10:41:59;;;;;;;83.63;27.30;;;7.80;99.90;;;;;;4981038;28;20782;-74
2024/03/12 10:44:27;;;;;;;126.87;33.33;;;7.80;99.90;;;;;;4982200;28;20790;-72
2024/03/12 10:46:53;;;;;;;185.73;39.13;;;7.70;99.90;;;;;;4983750;28;20474;-76
2024/03/12 10:49:22;;;;;;;138.00;36.00;;;7.60;99.90;;;;;;4966757;28;20412;-74
2024/03/12 10:51:49;;;;;;;61.70;25.73;;;7.60;99.90;;;;;;4982744;28;20483;-76
2024/03/12 10:54:16;;;;;;;139.43;30.00;;;7.80;99.90;;;;;;4984435;28;20480;-74
2024/03/12 10:56:45;;;;;;;44.30;22.67;;;8.10;99.90;;;;;;4986654;28;20466;-75
2024/03/12 10:59:12;;;;;;;97.20;30.60;;;8.40;99.90;;;;;;4970156;28;20526;-76
2024/03/12 11:01:40;;;;;;;62.07;29.37;;;8.40;99.90;;;;;;4984016;28;20504;-74
2024/03/12 11:04:09;;;;;;;58.50;28.83;;;8.50;99.90;;;;;;4977022;28;20463;-81
2024/03/12 11:06:39;;;;;;;57.63;28.63;;;8.60;99.90;;;;;;4995435;28;20443;-81
2024/03/12 11:09:13;;;;;;;48.43;29.63;;;8.80;99.90;;;;;;4979628;28;20431;-80
2024/03/12 11:11:39;;;;;;;43.70;27.03;;;8.80;99.90;;;;;;4989186;28;20467;-72
2024/03/12 11:14:07;;;;;;;45.80;27.57;;;8.80;99.90;;;;;;4980162;28;20424;-75
2024/03/12 11:16:34;;;;;;;41.03;26.70;;;8.90;99.90;;;;;;4984367;28;20459;-71
2024/03/12 11:19:22;;;;;;;45.03;26.83;;;9.00;99.90;;;;;;4981800;28;20438;-71
2024/03/12 11:21:49;;;;;;;37.80;24.73;;;9.20;99.90;;;;;;4982139;28;20424;-70
2024/03/12 11:24:25;;;;;;;38.97;26.20;;;9.20;99.90;;;;;;4977660;28;20475;-72
2024/03/12 11:26:52;;;;;;;32.03;23.77;;;9.20;99.90;;;;;;4983440;28;20444;-70
2024/03/12 11:29:18;;;;;;;32.43;23.80;;;9.30;99.90;;;;;;4968416;28;20430;-75
2024/03/12 11:31:43;;;;;;;37.80;25.30;;;9.50;99.90;;;;;;4971377;28;20420;-74
2024/03/12 11:34:10;;;;;;;34.90;22.43;;;9.60;99.90;;;;;;4971010;28;20507;-72
2024/03/12 11:36:41;;;;;;;33.30;23.57;;;9.80;99.90;;;;;;4985233;28;20216;-73
2024/03/12 11:39:15;;;;;;;31.53;23.67;;;9.80;99.90;;;;;;4967463;28;20439;-71
2024/03/12 11:41:59;;;;;;;30.97;20.87;;;10.00;99.90;;;;;;4961999;28;20423;-75
2024/03/12 11:44:43;;;;;;;35.37;23.63;;;10.40;99.90;;;;;;4981843;28;20539;-72
2024/03/12 11:47:09;;;;;;;30.40;21.73;;;10.60;99.90;;;;;;4984210;28;20739;-72
2024/03/12 11:49:34;;;;;;;31.93;23.20;;;10.60;99.90;;;;;;4983022;28;20427;-72
2024/03/12 11:52:01;;;;;;;35.33;25.27;;;10.70;99.90;;;;;;4983917;28;20198;-71
2024/03/12 11:54:47;;;;;;;30.87;22.87;;;10.70;99.90;;;;;;4985693;28;20219;-70
2024/03/12 11:57:21;;;;;;;30.27;21.47;;;11.00;99.90;;;;;;4987094;28;20566;-73
2024/03/12 11:59:50;;;;;;;35.97;24.43;;;11.30;99.90;;;;;;4990041;28;20433;-74
2024/03/12 12:02:20;;;;;;;26.60;20.47;;;11.60;99.90;;;;;;4991904;28;20435;-71
2024/03/12 12:04:51;;;;;;;29.63;21.77;;;11.70;99.90;;;;;;4990303;28;20480;-74
2024/03/12 12:07:21;;;;;;;35.17;22.80;;;11.90;99.90;;;;;;4990837;28;20464;-71
2024/03/12 12:09:48;;;;;;;28.57;21.60;;;11.90;99.90;;;;;;4990731;28;20442;-73
2024/03/12 12:12:14;;;;;;;32.33;24.40;;;12.00;99.90;;;;;;4989914;28;20419;-73
2024/03/12 12:14:42;;;;;;;26.90;20.73;;;12.10;99.90;;;;;;4986565;28;20415;-73
2024/03/12 12:17:09;;;;;;;35.30;25.83;;;12.20;99.90;;;;;;4987013;28;20460;-72
2024/03/12 12:19:34;;;;;;;27.00;21.57;;;12.40;99.90;;;;;;4984578;28;20493;-73
2024/03/12 12:22:00;;;;;;;28.57;22.23;;;12.40;99.90;;;;;;4987682;28;20451;-74
2024/03/12 12:24:26;;;;;;;32.60;20.53;;;12.30;99.90;;;;;;4987799;28;20231;-75
2024/03/12 12:26:53;;;;;;;28.87;21.70;;;12.40;99.90;;;;;;4987915;28;20456;-74
2024/03/12 12:29:21;;;;;;;25.47;19.97;;;12.50;99.90;;;;;;4983828;28;20187;-73
2024/03/12 12:31:47;;;;;;;40.57;29.30;;;12.60;99.90;;;;;;4984988;28;20420;-72
2024/03/12 12:34:14;;;;;;;34.37;24.90;;;12.80;99.90;;;;;;4983543;28;20451;-72
2024/03/12 12:36:43;;;;;;;38.73;28.80;;;13.00;99.90;;;;;;4983817;28;20499;-74
2024/03/12 12:39:11;;;;;;;29.33;23.23;;;13.20;99.90;;;;;;4984614;28;20436;-74
2024/03/12 12:41:42;;;;;;;35.83;27.47;;;13.20;99.90;;;;;;4970455;28;20435;-74
2024/03/12 12:44:20;;;;;;;35.80;25.87;;;13.40;99.90;;;;;;4987809;28;20530;-76
2024/03/12 12:46:47;;;;;;;28.83;21.90;;;13.50;99.90;;;;;;4993060;28;20522;-75